Aplicació Alertes

Dades de l'estació automàtica Benissanet

?
?
Resum diari 23:00 TU
Dades diàries de l'estació meteorològica
Temperatura mitjana 17.3 °C
Temperatura màxima 21.1 °C 14:28 TU
Temperatura mínima 15.3 °C 23:04 TU
Humitat relativa mitjana 54%
Precipitació acumulada 0.0 mm
Ratxa màxima del vent (10 m) 68.4 km/h - 289º 7:09 TU
Irradiació solar global 8.1 MJ/m2

El tram horari està expressat en Temps Universal (TU). Cal sumar una hora en horari d'hivern i dues en horari d'estiu per passar a l'hora oficial.

Benissanet

Metadades estació meteorol´gica
Municipi Benissanet
Comarca Ribera d'Ebre
Altitud 32 m
Data alta 14.07.1993
Estat actual Operativa
Dades de període
Període
TU
TM
°C
TX
°C
TN
°C
HRM
%
PPT
mm
VVM (10 m)
km/h
DVM (10 m)
graus
VVX (10 m)
km/h
RS
W/m2
00:00 - 00:30 16.2 16.4 16.0 51 0.0 33.5 285 58.7 0
00:30 - 01:00 16.3 16.4 16.2 51 0.0 33.5 286 57.2 0
01:00 - 01:30 16.1 16.3 16.1 52 0.0 27.4 297 52.2 0
01:30 - 02:00 15.9 16.2 15.6 52 0.0 20.9 297 36.7 0
02:00 - 02:30 15.9 16.1 15.7 52 0.0 24.8 288 52.2 0
02:30 - 03:00 16.1 16.2 15.9 52 0.0 25.9 288 46.8 0
03:00 - 03:30 16.2 16.3 15.9 53 0.0 30.6 286 55.1 0
03:30 - 04:00 16.1 16.2 15.9 54 0.0 27.7 292 49.7 0
04:00 - 04:30 16.0 16.2 15.9 55 0.0 33.1 299 60.1 0
04:30 - 05:00 16.1 16.2 16.0 56 0.0 32.0 296 56.9 0
05:00 - 05:30 16.1 16.2 16.0 56 0.0 33.8 296 60.5 0
05:30 - 06:00 16.2 16.3 16.1 56 0.0 35.3 293 56.9 0
06:00 - 06:30 16.2 16.4 16.1 57 0.0 35.3 295 63.0 0
06:30 - 07:00 16.3 16.4 16.2 56 0.0 37.4 291 63.4 0
07:00 - 07:30 16.4 16.5 16.3 56 0.0 31.0 292 68.4 1
07:30 - 08:00 16.3 16.4 16.2 56 0.0 29.5 292 64.8 11
08:00 - 08:30 16.5 16.9 16.3 55 0.0 28.1 288 51.8 63
08:30 - 09:00 16.7 17.0 16.5 55 0.0 19.1 288 45.0 111
09:00 - 09:30 17.2 17.3 16.9 54 0.0 33.1 287 58.3 252
09:30 - 10:00 17.0 17.1 17.0 55 0.0 29.2 292 52.2 162
10:00 - 10:30 17.1 17.1 17.0 55 0.0 26.3 294 56.9 158
10:30 - 11:00 17.3 17.4 17.1 55 0.0 15.8 307 40.3 167
11:00 - 11:30 17.5 17.9 17.3 55 0.0 18.7 303 41.8 123
11:30 - 12:00 18.6 19.1 17.9 52 0.0 27.4 303 55.1 262
12:00 - 12:30 19.8 20.2 19.2 49 0.0 29.5 304 57.2 461
12:30 - 13:00 20.1 20.4 19.9 48 0.0 33.1 306 54.4 529
13:00 - 13:30 20.4 20.6 20.2 48 0.0 29.2 296 54.4 519
13:30 - 14:00 20.6 21.0 20.1 48 0.0 24.8 276 42.8 364
14:00 - 14:30 20.7 21.1 20.3 48 0.0 24.1 273 43.6 378
14:30 - 15:00 20.9 21.1 20.7 48 0.0 28.1 278 45.0 360
15:00 - 15:30 20.7 20.9 20.5 49 0.0 27.0 281 47.5 282
15:30 - 16:00 20.3 20.6 19.9 49 0.0 26.3 283 55.8 200
16:00 - 16:30 19.6 19.9 19.1 51 0.0 32.8 280 53.6 116
16:30 - 17:00 18.7 19.1 18.4 53 0.0 25.6 276 49.3 18
17:00 - 17:30 18.1 18.4 17.9 54 0.0 27.4 271 49.3 0
17:30 - 18:00 17.7 17.8 17.5 56 0.0 27.0 271 47.5 0
18:00 - 18:30 17.3 17.6 17.0 57 0.0 24.8 279 44.3 0
18:30 - 19:00 17.0 17.2 16.9 59 0.0 24.1 277 50.8 0
19:00 - 19:30 16.9 17.1 16.8 58 0.0 28.8 275 48.6 0
19:30 - 20:00 16.8 17.0 16.7 58 0.0 26.3 285 45.4 0
20:00 - 20:30 16.6 16.8 16.5 59 0.0 23.4 291 47.9 0
20:30 - 21:00 16.5 16.7 16.3 59 0.0 20.9 283 42.8 0
21:00 - 21:30 16.5 16.6 16.3 58 0.0 18.4 281 35.3 0
21:30 - 22:00 16.4 16.5 16.2 58 0.0 18.7 275 36.0 0
22:00 - 22:30 15.9 16.3 15.5 60 0.0 11.2 291 26.6 0
22:30 - 23:00 15.7 16.2 15.4 60 0.0 9.7 300 29.5 0
23:00 - 23:30 15.7 16.2 15.3 61 0.0 11.5 299 25.6 0

Les dades en taronja només han passat un control de qualitat automàtic. Resta pendent la seva validació definitiva.